createdAt,value
2019-01-20T00:00:47.243Z,77.28
2019-01-20T00:03:16.642Z,77.45
2019-01-20T00:05:46.103Z,77.34
2019-01-20T00:08:15.596Z,77.08
2019-01-20T00:10:45.034Z,77.24
2019-01-20T00:13:14.445Z,77.64
2019-01-20T00:15:45.574Z,77.50
2019-01-20T00:18:15.069Z,78.00
2019-01-20T00:20:44.527Z,78.36
2019-01-20T00:23:13.944Z,78.22
2019-01-20T00:25:43.390Z,78.45
2019-01-20T00:28:12.893Z,78.78
2019-01-20T00:30:42.346Z,79.09
2019-01-20T00:33:11.745Z,79.01
2019-01-20T00:35:41.193Z,78.77
2019-01-20T00:38:10.638Z,78.45
2019-01-20T00:40:40.106Z,78.33
2019-01-20T00:43:09.608Z,78.40
2019-01-20T00:45:39.064Z,78.53
2019-01-20T00:48:08.460Z,78.58
2019-01-20T00:50:37.925Z,78.91
2019-01-20T00:53:07.411Z,78.59
2019-01-20T00:55:36.864Z,77.70
2019-01-20T00:58:06.360Z,77.39
2019-01-20T01:00:35.970Z,77.19
2019-01-20T01:03:05.759Z,77.19
2019-01-20T01:05:35.203Z,78.08
2019-01-20T01:08:04.904Z,77.69
2019-01-20T01:10:34.439Z,77.75
2019-01-20T01:13:04.659Z,78.55
2019-01-20T01:15:34.142Z,79.03
2019-01-20T01:18:03.715Z,78.87
2019-01-20T01:20:33.159Z,78.69
2019-01-20T01:23:02.570Z,78.17
2019-01-20T01:25:32.022Z,78.23
2019-01-20T01:28:01.507Z,78.10
2019-01-20T01:30:30.959Z,78.25
2019-01-20T01:33:00.371Z,78.05
2019-01-20T01:35:29.822Z,78.77
2019-01-20T01:37:59.478Z,79.46
2019-01-20T01:40:28.910Z,79.85
2019-01-20T01:42:58.321Z,80.30
2019-01-20T01:45:27.772Z,80.67
2019-01-20T01:47:57.295Z,80.85
2019-01-20T01:50:26.721Z,80.59
2019-01-20T01:52:56.129Z,80.45
2019-01-20T01:55:25.559Z,80.38
2019-01-20T01:57:55.017Z,80.36
2019-01-20T02:00:25.244Z,80.41
2019-01-20T02:02:54.743Z,80.90
2019-01-20T02:05:24.275Z,80.78
2019-01-20T02:07:53.685Z,81.03
2019-01-20T02:10:24.169Z,80.52
2019-01-20T02:12:54.046Z,79.86
2019-01-20T02:15:23.884Z,80.18
2019-01-20T02:17:53.271Z,80.79
2019-01-20T02:20:24.944Z,81.19
2019-01-20T02:22:54.552Z,81.33
2019-01-20T02:25:23.995Z,81.28
2019-01-20T02:27:55.525Z,81.13
2019-01-20T02:30:30.197Z,80.50
2019-01-20T02:32:59.899Z,80.72
2019-01-20T02:35:29.331Z,80.56
2019-01-20T02:37:58.849Z,80.55
2019-01-20T02:40:28.271Z,80.26
2019-01-20T02:42:57.667Z,80.28
2019-01-20T02:45:27.100Z,80.40
2019-01-20T02:47:56.632Z,80.41
2019-01-20T02:50:26.065Z,80.62
2019-01-20T02:52:55.450Z,80.56
2019-01-20T02:55:24.886Z,81.02
2019-01-20T02:57:54.395Z,81.50
2019-01-20T03:00:25.290Z,81.76
2019-01-20T03:02:54.697Z,82.22
2019-01-20T03:05:25.159Z,81.49
2019-01-20T03:07:54.685Z,80.94
2019-01-20T03:10:24.114Z,80.86
2019-01-20T03:12:53.516Z,81.15
2019-01-20T03:15:23.104Z,80.59
2019-01-20T03:17:52.613Z,80.36
2019-01-20T03:20:23.006Z,80.35
2019-01-20T03:22:52.412Z,80.58
2019-01-20T03:25:22.058Z,81.11
2019-01-20T03:27:51.564Z,82.03
2019-01-20T03:30:22.743Z,82.33
2019-01-20T03:32:52.146Z,82.59
2019-01-20T03:35:24.414Z,81.57
2019-01-20T03:37:54.023Z,81.29
2019-01-20T03:40:23.863Z,80.73
2019-01-20T03:42:53.349Z,80.55
2019-01-20T03:45:22.797Z,80.61
2019-01-20T03:47:52.333Z,80.70
2019-01-20T03:50:21.849Z,80.90
2019-01-20T03:52:51.259Z,81.16
2019-01-20T03:55:20.918Z,80.55
2019-01-20T03:57:50.371Z,80.42
2019-01-20T04:00:22.134Z,80.49
2019-01-20T04:02:54.398Z,80.52
2019-01-20T04:05:23.933Z,80.55
2019-01-20T04:07:53.318Z,80.77
2019-01-20T04:10:22.968Z,80.88
2019-01-20T04:12:52.462Z,81.17
2019-01-20T04:15:21.909Z,80.91
2019-01-20T04:17:51.307Z,80.36
2019-01-20T04:20:20.879Z,80.10
2019-01-20T04:22:50.388Z,79.88
2019-01-20T04:25:20.161Z,79.99
2019-01-20T04:27:49.547Z,79.86
2019-01-20T04:30:20.196Z,79.49
2019-01-20T04:32:50.030Z,79.51
2019-01-20T04:35:19.481Z,79.77
2019-01-20T04:37:48.925Z,80.03
2019-01-20T04:40:20.511Z,80.25
2019-01-20T04:42:50.023Z,80.41
2019-01-20T04:45:19.566Z,80.54
2019-01-20T04:47:49.101Z,80.62
2019-01-20T04:50:20.792Z,80.45
2019-01-20T04:52:50.291Z,80.22
2019-01-20T04:55:19.945Z,80.32
2019-01-20T04:57:58.769Z,80.38
2019-01-20T05:00:29.058Z,80.29
2019-01-20T05:02:58.450Z,80.78
2019-01-20T05:05:27.980Z,81.39
2019-01-20T05:07:57.501Z,81.01
2019-01-20T05:10:28.971Z,81.07
2019-01-20T05:12:58.369Z,81.36
2019-01-20T05:15:27.809Z,81.39
2019-01-20T05:17:57.270Z,81.24
2019-01-20T05:20:26.720Z,81.52
2019-01-20T05:22:56.223Z,81.82
2019-01-20T05:25:25.659Z,81.81
2019-01-20T05:27:55.046Z,81.39
2019-01-20T05:30:27.468Z,80.27
2019-01-20T05:32:56.951Z,79.92
2019-01-20T05:35:26.408Z,79.71
2019-01-20T05:37:59.029Z,79.60
2019-01-20T05:40:28.497Z,79.66
2019-01-20T05:42:57.997Z,80.25
2019-01-20T05:45:27.445Z,80.79
2019-01-20T05:47:56.861Z,80.95
2019-01-20T05:50:26.335Z,81.35
2019-01-20T05:52:55.825Z,80.85
2019-01-20T05:55:25.281Z,79.97
2019-01-20T05:57:54.750Z,79.81
2019-01-20T06:00:32.078Z,79.89
2019-01-20T06:03:01.496Z,80.08
2019-01-20T06:05:30.970Z,80.48
2019-01-20T06:08:00.474Z,80.60
2019-01-20T06:10:29.927Z,79.57
2019-01-20T06:12:59.320Z,79.11
2019-01-20T06:15:28.784Z,79.35
2019-01-20T06:17:58.276Z,79.18
2019-01-20T06:20:27.735Z,79.43
2019-01-20T06:22:57.119Z,79.04
2019-01-20T06:25:26.557Z,79.08
2019-01-20T06:27:58.142Z,79.09
2019-01-20T06:30:32.192Z,79.11
2019-01-20T06:33:01.592Z,79.09
2019-01-20T06:35:31.118Z,79.10
2019-01-20T06:38:00.639Z,79.24
2019-01-20T06:40:30.095Z,79.39
2019-01-20T06:43:02.197Z,79.52
2019-01-20T06:45:30.828Z,79.02
2019-01-20T06:48:00.234Z,78.33
2019-01-20T06:50:29.699Z,77.94
2019-01-20T06:52:59.199Z,78.15
2019-01-20T06:55:28.680Z,77.89
2019-01-20T06:57:58.071Z,77.61
2019-01-20T07:00:27.522Z,77.41
2019-01-20T07:02:57.019Z,77.24
2019-01-20T07:05:26.463Z,76.70
2019-01-20T07:07:55.865Z,76.28
2019-01-20T07:10:25.338Z,76.12
2019-01-20T07:12:54.844Z,75.95
2019-01-20T07:15:25.293Z,75.62
2019-01-20T07:17:54.862Z,75.36
2019-01-20T07:20:24.402Z,75.43
2019-01-20T07:22:53.804Z,75.55
2019-01-20T07:25:23.376Z,75.28
2019-01-20T07:27:52.861Z,74.91
2019-01-20T07:30:23.612Z,74.65
2019-01-20T07:32:53.115Z,74.49
2019-01-20T07:35:22.745Z,74.22
2019-01-20T07:37:52.593Z,73.79
2019-01-20T07:40:23.535Z,73.95
2019-01-20T07:42:53.145Z,74.14
2019-01-20T07:45:22.599Z,73.98
2019-01-20T07:47:52.112Z,74.62
2019-01-20T07:50:26.338Z,74.77
2019-01-20T07:52:55.942Z,74.44
2019-01-20T07:55:25.441Z,74.39
2019-01-20T07:57:54.967Z,74.53
2019-01-20T08:00:26.534Z,74.31
2019-01-20T08:02:56.040Z,74.15
2019-01-20T08:05:25.452Z,73.98
2019-01-20T08:07:54.865Z,73.89
2019-01-20T08:10:26.890Z,73.76
2019-01-20T08:12:56.403Z,73.67
2019-01-20T08:15:25.820Z,73.60
2019-01-20T08:17:55.216Z,72.95
2019-01-20T08:20:25.321Z,73.06
2019-01-20T08:22:54.830Z,73.09
2019-01-20T08:25:24.325Z,73.05
2019-01-20T08:27:53.835Z,72.67
2019-01-20T08:30:27.595Z,73.15
2019-01-20T08:32:57.607Z,73.70
2019-01-20T08:35:26.999Z,73.63
2019-01-20T08:37:56.396Z,73.64
2019-01-20T08:40:30.780Z,73.59
2019-01-20T08:43:00.530Z,73.42
2019-01-20T08:46:07.609Z,73.48
2019-01-20T08:48:37.029Z,73.50
2019-01-20T08:51:07.114Z,73.37
2019-01-20T08:53:36.595Z,73.30
2019-01-20T08:56:06.101Z,73.12
2019-01-20T08:58:35.512Z,72.94
2019-01-20T09:01:05.042Z,72.89
2019-01-20T09:03:34.547Z,73.12
2019-01-20T09:06:03.954Z,73.01
2019-01-20T09:08:33.347Z,72.90
2019-01-20T09:11:02.863Z,73.23
2019-01-20T09:13:39.365Z,72.95
2019-01-20T09:16:03.653Z,72.75
2019-01-20T09:18:33.199Z,72.63
2019-01-20T09:21:03.812Z,72.53
2019-01-20T09:23:33.218Z,72.75
2019-01-20T09:26:02.735Z,72.99
2019-01-20T09:28:32.247Z,72.93
2019-01-20T09:31:01.655Z,72.66
2019-01-20T09:33:31.051Z,72.68
2019-01-20T09:36:00.551Z,72.40
2019-01-20T09:38:30.051Z,72.24
2019-01-20T09:40:59.452Z,71.93
2019-01-20T09:43:28.828Z,71.97
2019-01-20T09:45:58.432Z,72.06
2019-01-20T09:48:27.953Z,71.83
2019-01-20T09:50:58.014Z,71.50
2019-01-20T09:53:27.409Z,71.05
2019-01-20T09:55:56.922Z,71.08
2019-01-20T09:58:26.322Z,70.68
2019-01-20T10:00:55.815Z,70.25
2019-01-20T10:03:25.421Z,69.69
2019-01-20T10:05:54.922Z,68.97
2019-01-20T10:08:24.367Z,68.05
2019-01-20T10:10:53.869Z,67.46
2019-01-20T10:13:23.364Z,66.91
2019-01-20T10:15:52.853Z,66.22
2019-01-20T10:18:22.264Z,65.97
2019-01-20T10:20:51.779Z,64.83
2019-01-20T10:23:21.288Z,64.10
2019-01-20T10:25:50.706Z,63.80
2019-01-20T10:28:25.898Z,63.78
2019-01-20T10:30:55.400Z,63.11
2019-01-20T10:33:25.950Z,62.87
2019-01-20T10:36:06.305Z,62.89
2019-01-20T10:53:25.823Z,61.40
2019-01-20T10:55:55.316Z,60.58
2019-01-20T10:58:24.948Z,59.17
2019-01-20T11:00:54.518Z,57.08
2019-01-20T11:03:24.304Z,56.46
2019-01-20T11:05:53.930Z,57.09
2019-01-20T11:08:23.663Z,57.65
2019-01-20T11:10:53.353Z,58.16
2019-01-20T11:13:23.064Z,59.30
2019-01-20T11:15:53.145Z,59.85
2019-01-20T11:18:22.810Z,60.51
2019-01-20T11:20:52.501Z,61.19
2019-01-20T11:23:23.701Z,61.37
2019-01-20T11:25:53.199Z,61.97
2019-01-20T11:28:24.409Z,62.47
2019-01-20T11:30:54.303Z,63.05
2019-01-20T11:33:24.034Z,63.55
2019-01-20T11:35:53.497Z,64.42
2019-01-20T11:38:23.258Z,64.62
2019-01-20T11:40:52.741Z,64.53
2019-01-20T11:43:22.458Z,65.15
2019-01-20T11:45:51.863Z,65.60
2019-01-20T11:48:21.282Z,65.81
2019-01-20T11:50:51.064Z,66.06
2019-01-20T11:53:20.782Z,66.18
2019-01-20T11:55:50.473Z,66.11
2019-01-20T11:58:20.100Z,66.11
2019-01-20T12:00:49.596Z,66.02
2019-01-20T12:03:19.340Z,65.87
2019-01-20T12:05:49.099Z,65.41
2019-01-20T12:08:19.005Z,64.79
2019-01-20T12:10:48.591Z,64.92
2019-01-20T12:13:21.068Z,65.35
2019-01-20T12:15:51.135Z,65.23
2019-01-20T12:18:21.372Z,65.77
2019-01-20T12:20:51.037Z,65.97
2019-01-20T12:23:20.835Z,66.30
2019-01-20T12:25:50.585Z,66.31
2019-01-20T12:28:20.390Z,66.13
2019-01-20T12:30:49.805Z,65.09
2019-01-20T12:33:19.223Z,65.35
2019-01-20T12:35:49.005Z,65.10
2019-01-20T12:38:18.503Z,64.48
2019-01-20T12:40:48.741Z,64.08
2019-01-20T12:43:18.459Z,64.02
2019-01-20T12:45:48.257Z,63.84
2019-01-20T12:48:17.741Z,63.74
2019-01-20T12:50:47.144Z,63.37
2019-01-20T12:53:16.648Z,63.15
2019-01-20T12:55:46.361Z,62.84
2019-01-20T12:58:16.185Z,62.41
2019-01-20T13:00:45.815Z,61.96
2019-01-20T13:03:15.706Z,62.29
2019-01-20T13:05:45.110Z,63.35
2019-01-20T13:08:14.542Z,64.23
2019-01-20T13:10:44.418Z,64.38
2019-01-20T13:13:14.193Z,64.46
2019-01-20T13:15:45.774Z,65.13
2019-01-20T13:18:15.373Z,66.23
2019-01-20T13:20:45.056Z,66.74
2019-01-20T13:23:14.809Z,67.31
2019-01-20T13:25:44.501Z,67.74
2019-01-20T13:28:14.107Z,68.20
2019-01-20T13:30:43.615Z,68.79
2019-01-20T13:33:13.121Z,69.24
2019-01-20T13:35:42.698Z,69.62
2019-01-20T13:38:20.259Z,69.97
2019-01-20T13:41:01.996Z,70.55
2019-01-20T13:43:33.226Z,70.55
2019-01-20T13:46:05.001Z,70.61
2019-01-20T13:48:34.836Z,70.73
2019-01-20T13:51:04.338Z,70.95
2019-01-20T13:53:34.025Z,71.08
2019-01-20T13:56:03.498Z,71.21
2019-01-20T13:58:35.303Z,71.70
2019-01-20T14:01:05.354Z,71.59
2019-01-20T14:03:35.120Z,71.71
2019-01-20T14:06:04.630Z,71.72
2019-01-20T14:08:34.367Z,71.89
2019-01-20T14:11:05.265Z,71.85
2019-01-20T14:13:35.408Z,72.13
2019-01-20T14:16:05.150Z,72.41
2019-01-20T14:18:35.020Z,72.39
2019-01-20T14:21:04.519Z,72.37
2019-01-20T14:23:34.205Z,72.49
2019-01-20T14:26:04.055Z,72.69
2019-01-20T14:28:33.522Z,72.98
2019-01-20T14:31:04.947Z,73.11
2019-01-20T14:33:34.355Z,73.22
2019-01-20T14:36:04.492Z,73.49
2019-01-20T14:38:34.146Z,73.72
2019-01-20T14:41:03.826Z,73.86
2019-01-20T14:43:33.452Z,74.05
2019-01-20T14:46:03.123Z,74.28
2019-01-20T14:48:32.791Z,74.55
2019-01-20T14:51:02.483Z,74.80
2019-01-20T14:53:31.956Z,75.10
2019-01-20T14:56:01.893Z,75.31
2019-01-20T14:58:31.655Z,75.62
2019-01-20T15:01:01.473Z,75.77
2019-01-20T15:03:34.976Z,75.82
2019-01-20T15:06:07.031Z,76.04
2019-01-20T15:08:36.544Z,75.99
2019-01-20T15:11:06.532Z,76.10
2019-01-20T15:13:36.413Z,76.36
2019-01-20T15:16:06.315Z,76.54
2019-01-20T15:18:36.116Z,76.43
2019-01-20T15:21:05.810Z,76.50
2019-01-20T15:23:35.648Z,76.46
2019-01-20T15:26:05.723Z,76.38
2019-01-20T15:28:35.123Z,76.47
2019-01-20T15:31:04.993Z,76.67
2019-01-20T15:33:34.764Z,76.92
2019-01-20T15:36:05.986Z,76.98
2019-01-20T15:38:35.663Z,77.02
2019-01-20T15:41:07.953Z,77.25
2019-01-20T15:43:37.583Z,77.39
2019-01-20T15:46:07.451Z,77.54
2019-01-20T15:48:36.938Z,77.56
2019-01-20T15:51:08.381Z,77.70
2019-01-20T15:53:38.135Z,77.68
2019-01-20T15:56:08.082Z,77.67
2019-01-20T15:58:37.644Z,77.89
2019-01-20T16:01:07.203Z,77.84
2019-01-20T16:03:36.942Z,78.10
2019-01-20T16:06:06.724Z,78.45
2019-01-20T16:08:38.273Z,78.80
2019-01-20T16:11:07.668Z,79.22
2019-01-20T16:13:37.159Z,79.58
2019-01-20T16:16:06.838Z,79.70
2019-01-20T16:18:36.617Z,79.58
2019-01-20T16:21:06.435Z,79.52
2019-01-20T16:23:36.253Z,79.36
2019-01-20T16:26:06.884Z,79.21
2019-01-20T16:28:36.307Z,79.29
2019-01-20T16:31:05.790Z,79.16
2019-01-20T16:33:35.940Z,78.93
2019-01-20T16:36:05.470Z,78.97
2019-01-20T16:38:35.029Z,78.83
2019-01-20T16:41:04.934Z,78.92
2019-01-20T16:43:34.634Z,79.37
2019-01-20T16:46:04.438Z,79.69
2019-01-20T16:48:33.861Z,80.15
2019-01-20T16:51:03.389Z,80.16
2019-01-20T16:53:33.136Z,79.99
2019-01-20T16:56:02.996Z,80.05
2019-01-20T16:58:32.940Z,80.13
2019-01-20T17:01:04.037Z,80.03
2019-01-20T17:03:33.724Z,80.08
2019-01-20T17:06:03.653Z,79.83
2019-01-20T17:08:33.321Z,79.92
2019-01-20T17:11:02.796Z,80.28
2019-01-20T17:13:32.431Z,80.92
2019-01-20T17:16:02.346Z,81.67
2019-01-20T17:18:32.248Z,82.34
2019-01-20T17:21:02.700Z,82.78
2019-01-20T17:23:32.650Z,83.22
2019-01-20T17:26:02.524Z,83.05
2019-01-20T17:28:32.291Z,82.81
2019-01-20T17:31:03.132Z,82.74
2019-01-20T17:33:35.147Z,82.75
2019-01-20T17:36:05.146Z,82.54
2019-01-20T17:38:34.858Z,81.94
2019-01-20T17:41:04.757Z,81.76
2019-01-20T17:43:34.655Z,81.93
2019-01-20T17:46:04.793Z,82.12
2019-01-20T17:48:34.436Z,82.03
2019-01-20T17:51:03.920Z,82.03
2019-01-20T17:53:33.703Z,81.99
2019-01-20T17:56:03.285Z,81.91
2019-01-20T17:58:32.676Z,82.00
2019-01-20T18:01:03.576Z,82.03
2019-01-20T18:03:33.322Z,82.07
2019-01-20T18:06:03.139Z,82.16
2019-01-20T18:08:32.746Z,82.12
2019-01-20T18:11:02.551Z,82.02
2019-01-20T18:13:32.166Z,81.87
2019-01-20T18:16:01.904Z,81.53
2019-01-20T18:18:31.701Z,81.32
2019-01-20T18:21:01.276Z,81.04
2019-01-20T18:23:31.055Z,80.98
2019-01-20T18:26:00.931Z,80.85
2019-01-20T18:28:30.616Z,80.66
2019-01-20T18:31:00.046Z,80.39
2019-01-20T18:33:29.597Z,80.19
2019-01-20T18:35:59.095Z,80.00
2019-01-20T18:38:28.848Z,79.90
2019-01-20T18:40:58.432Z,79.68
2019-01-20T18:43:28.039Z,79.61
2019-01-20T18:46:01.868Z,79.19
2019-01-20T18:48:29.997Z,79.02
2019-01-20T18:50:59.405Z,79.02
2019-01-20T18:53:29.237Z,78.73
2019-01-20T18:55:59.235Z,78.35
2019-01-20T18:58:30.571Z,78.27
2019-01-20T19:01:00.262Z,78.03
2019-01-20T19:03:29.848Z,78.04
2019-01-20T19:05:59.700Z,78.02
2019-01-20T19:08:29.220Z,77.95
2019-01-20T19:10:59.043Z,77.29
2019-01-20T19:13:28.819Z,77.16
2019-01-20T19:15:58.392Z,77.08
2019-01-20T19:18:29.441Z,77.01
2019-01-20T19:20:58.992Z,76.83
2019-01-20T19:23:28.426Z,76.65
2019-01-20T19:25:58.637Z,76.69
2019-01-20T19:28:28.904Z,76.70
2019-01-20T19:30:58.574Z,76.54
2019-01-20T19:33:28.478Z,76.63
2019-01-20T19:35:57.861Z,76.87
2019-01-20T19:38:28.662Z,76.86
2019-01-20T19:40:58.591Z,76.87
2019-01-20T19:43:28.418Z,76.85
2019-01-20T19:45:58.127Z,76.80
2019-01-20T19:48:27.822Z,76.65
2019-01-20T19:50:57.443Z,76.62
2019-01-20T19:53:27.043Z,76.88
2019-01-20T19:55:56.690Z,76.76
2019-01-20T19:58:26.332Z,76.71
2019-01-20T20:00:56.230Z,76.63
2019-01-20T20:03:30.690Z,76.82
2019-01-20T20:06:00.072Z,76.45
2019-01-20T20:08:29.537Z,76.55
2019-01-20T20:10:59.343Z,76.67
2019-01-20T20:13:29.208Z,76.84
2019-01-20T20:15:59.169Z,76.97
2019-01-20T20:18:28.969Z,77.09
2019-01-20T20:20:58.367Z,77.26
2019-01-20T20:23:27.853Z,77.29
2019-01-20T20:25:57.504Z,77.37
2019-01-20T20:28:26.985Z,77.50
2019-01-20T20:30:56.475Z,77.63
2019-01-20T20:33:26.200Z,77.78
2019-01-20T20:35:55.772Z,78.18
2019-01-20T20:38:25.634Z,77.52
2019-01-20T20:40:55.325Z,77.33
2019-01-20T20:43:24.806Z,77.58
2019-01-20T20:45:54.291Z,77.89
2019-01-20T20:48:23.978Z,78.06
2019-01-20T20:50:54.891Z,78.18
2019-01-20T20:53:24.501Z,78.31
2019-01-20T20:55:53.910Z,78.37
2019-01-20T20:58:23.369Z,78.39
2019-01-20T21:00:55.097Z,78.42
2019-01-20T21:03:27.962Z,78.54
2019-01-20T21:05:57.382Z,78.69
2019-01-20T21:08:27.110Z,78.89
2019-01-20T21:10:56.805Z,78.97
2019-01-20T21:13:26.291Z,78.90
2019-01-20T21:15:55.695Z,79.07
2019-01-20T21:18:27.340Z,78.48
2019-01-20T21:20:57.035Z,78.62
2019-01-20T21:23:26.524Z,78.82
2019-01-20T21:25:56.190Z,78.33
2019-01-20T21:28:25.692Z,78.14
2019-01-20T21:30:55.172Z,77.49
2019-01-20T21:33:24.588Z,77.00
2019-01-20T21:35:54.286Z,77.70
2019-01-20T21:38:24.078Z,77.87
2019-01-20T21:40:53.535Z,78.38
2019-01-20T21:43:23.037Z,78.90
2019-01-20T21:45:53.042Z,79.59
2019-01-20T21:48:22.550Z,80.31
2019-01-20T21:50:51.954Z,80.76
2019-01-20T21:53:21.570Z,81.29
2019-01-20T21:55:51.062Z,81.18
2019-01-20T21:58:20.813Z,81.01
2019-01-20T22:00:50.208Z,81.15
2019-01-20T22:03:19.635Z,81.22
2019-01-20T22:05:49.259Z,81.37
2019-01-20T22:08:18.951Z,81.67
2019-01-20T22:10:48.634Z,82.47
2019-01-20T22:13:18.130Z,83.31
2019-01-20T22:15:47.762Z,83.34
2019-01-20T22:18:17.432Z,83.06
2019-01-20T22:20:46.922Z,83.08
2019-01-20T22:23:16.411Z,83.30
2019-01-20T22:25:46.059Z,83.93
2019-01-20T22:28:15.806Z,84.05
2019-01-20T22:30:45.283Z,83.80
2019-01-20T22:33:14.787Z,83.32
2019-01-20T22:35:44.398Z,82.77
2019-01-20T22:38:14.103Z,82.84
2019-01-20T22:40:43.754Z,82.89
2019-01-20T22:43:13.356Z,82.24
2019-01-20T22:45:43.027Z,81.97
2019-01-20T22:48:12.619Z,81.22
2019-01-20T22:50:42.450Z,81.10
2019-01-20T22:53:12.335Z,81.11
2019-01-20T22:55:42.036Z,81.84
2019-01-20T22:58:11.892Z,83.80
2019-01-20T23:00:58.874Z,84.39
2019-01-20T23:03:29.030Z,84.12
2019-01-20T23:05:59.242Z,83.69
2019-01-20T23:08:28.897Z,83.56
2019-01-20T23:10:58.551Z,83.15
2019-01-20T23:13:28.339Z,82.76
2019-01-20T23:15:57.840Z,82.37
2019-01-20T23:18:27.326Z,82.22
2019-01-20T23:20:56.818Z,81.91
2019-01-20T23:23:26.222Z,80.60
2019-01-20T23:25:55.711Z,80.48
2019-01-20T23:28:25.395Z,80.83
2019-01-20T23:30:54.985Z,80.91
2019-01-20T23:33:24.464Z,80.59
2019-01-20T23:35:54.122Z,80.82
2019-01-20T23:38:23.789Z,81.41
2019-01-20T23:40:53.265Z,81.56
2019-01-20T23:43:23.054Z,82.69
2019-01-20T23:45:52.734Z,83.29
2019-01-20T23:48:22.145Z,83.24
2019-01-20T23:50:51.909Z,83.11
2019-01-20T23:53:21.779Z,83.42
2019-01-20T23:55:51.675Z,83.85
2019-01-20T23:58:21.169Z,84.09
